Time;durP1;ratioP1;P1;durP2;ratioP2;P2;SDS_P1;SDS_P2;PMS_P1;PMS_P2;Temp;Humidity;BMP_temperature;BMP_pressure;BME280_temperature;BME280_humidity;BME280_pressure;Samples;Min_cycle;Max_cycle;Signal;HPM_P1;HPM_P2
2023/06/16 00:00:59;;;;;;;13.43;11.32;;;;;;;-143.21;100.00;71344.50;5055329;28;20256;-83
2023/06/16 00:03:27;;;;;;;14.25;11.90;;;;;;;-143.21;100.00;71342.50;5052936;28;20267;-83
2023/06/16 00:05:56;;;;;;;14.85;11.07;;;;;;;-143.21;100.00;71346.47;5048916;28;20224;-83
2023/06/16 00:08:24;;;;;;;15.48;12.25;;;;;;;-143.21;100.00;71336.56;5050471;28;20201;-83
2023/06/16 00:10:52;;;;;;;19.67;11.50;;;;;;;-143.21;100.00;71340.53;5049480;28;20233;-83
2023/06/16 00:13:18;;;;;;;13.30;10.68;;;;;;;-143.21;100.00;71338.53;5049522;28;20206;-83
2023/06/16 00:15:46;;;;;;;14.32;10.70;;;;;;;-143.21;100.00;71342.50;5050184;28;20622;-83
2023/06/16 00:18:12;;;;;;;12.88;10.32;;;;;;;-143.21;100.00;71338.53;5051443;28;20660;-83
2023/06/16 00:20:41;;;;;;;14.00;10.73;;;;;;;-143.21;100.00;71338.53;5049120;28;20228;-84
2023/06/16 00:23:11;;;;;;;11.50;10.30;;;;;;;-143.21;100.00;71326.66;5049206;28;20198;-84
2023/06/16 00:25:38;;;;;;;13.43;10.38;;;;;;;-143.21;100.00;71334.59;5052160;28;20212;-84
2023/06/16 00:28:04;;;;;;;13.65;10.52;;;;;;;-143.21;100.00;71332.59;5049107;28;20202;-83
2023/06/16 00:30:31;;;;;;;12.27;10.10;;;;;;;-143.21;100.00;71330.63;5049324;28;20194;-84
2023/06/16 00:32:58;;;;;;;12.15;10.10;;;;;;;-143.21;100.00;71330.63;5051133;28;20249;-83
2023/06/16 00:35:25;;;;;;;12.10;10.15;;;;;;;-143.21;100.00;71332.59;5054490;28;20218;-83
2023/06/16 00:37:52;;;;;;;12.10;9.95;;;;;;;-143.21;100.00;71332.59;5050725;28;20202;-84
2023/06/16 00:40:20;;;;;;;14.40;10.65;;;;;;;-143.21;100.00;71324.66;5050796;28;20217;-83
2023/06/16 00:42:47;;;;;;;13.23;10.63;;;;;;;-143.21;100.00;71336.56;5047583;28;20206;-84
2023/06/16 00:45:14;;;;;;;14.20;10.18;;;;;;;-143.21;100.00;71338.53;5048397;28;20213;-84
2023/06/16 00:47:41;;;;;;;13.52;11.20;;;;;;;-143.21;100.00;71338.53;5048348;28;20209;-84
2023/06/16 00:50:09;;;;;;;12.68;9.90;;;;;;;-143.21;100.00;71334.59;5048338;28;20206;-83
2023/06/16 00:52:38;;;;;;;13.18;10.52;;;;;;;-143.21;100.00;71334.59;5051758;28;20198;-84
2023/06/16 00:55:08;;;;;;;14.25;10.68;;;;;;;-143.21;100.00;71326.66;5048864;28;20205;-84
2023/06/16 00:57:36;;;;;;;13.10;10.30;;;;;;;-143.21;100.00;71322.69;5051799;28;20669;-80
2023/06/16 01:00:06;;;;;;;13.02;10.20;;;;;;;-143.21;100.00;71324.66;5051165;28;20225;-81
2023/06/16 01:02:33;;;;;;;12.38;10.18;;;;;;;-143.21;100.00;71316.75;5048185;28;20201;-80
2023/06/16 01:05:00;;;;;;;14.10;11.05;;;;;;;-143.21;100.00;71310.78;5051022;28;20214;-79
2023/06/16 01:07:32;;;;;;;14.40;10.98;;;;;;;-143.21;100.00;71304.84;5050778;28;20210;-79
2023/06/16 01:10:06;;;;;;;12.35;11.02;;;;;;;-143.21;100.00;71306.81;5058381;28;20217;-79
2023/06/16 01:12:44;;;;;;;16.58;11.15;;;;;;;-143.21;100.00;71302.84;5058877;28;20224;-79
2023/06/16 01:15:15;;;;;;;11.65;10.13;;;;;;;-143.21;100.00;71300.88;5048711;28;20216;-79
2023/06/16 01:17:46;;;;;;;13.68;11.27;;;;;;;-143.21;100.00;71300.88;5054934;28;20221;-79
2023/06/16 01:20:19;;;;;;;12.88;10.43;;;;;;;-143.21;100.00;71300.88;5056236;28;20240;-79
2023/06/16 01:23:02;;;;;;;13.73;10.55;;;;;;;-143.21;100.00;71302.84;5055592;28;20205;-80
2023/06/16 01:25:32;;;;;;;14.48;11.18;;;;;;;-143.21;100.00;71300.88;5058444;28;20202;-78
2023/06/16 01:28:03;;;;;;;15.35;10.27;;;;;;;-143.21;100.00;71300.88;5054906;28;20837;-78
2023/06/16 01:30:32;;;;;;;12.68;10.85;;;;;;;-143.21;100.00;71294.94;5054708;28;20277;-81
2023/06/16 01:33:00;;;;;;;13.43;10.83;;;;;;;-143.21;100.00;71302.84;5008953;28;1203406;-82
2023/06/16 01:35:28;;;;;;;12.07;10.40;;;;;;;-143.21;100.00;71302.84;5051735;28;20205;-82
2023/06/16 01:37:56;;;;;;;13.95;10.43;;;;;;;-143.21;100.00;71300.88;5051864;28;20214;-82
2023/06/16 01:40:24;;;;;;;12.55;9.88;;;;;;;-143.21;100.00;71294.94;5055714;28;20233;-82
2023/06/16 01:42:53;;;;;;;13.07;10.68;;;;;;;-143.21;100.00;71296.91;5051920;28;20596;-79
2023/06/16 01:45:21;;;;;;;13.15;9.98;;;;;;;-143.21;100.00;71302.84;5055167;28;20202;-79
2023/06/16 01:47:48;;;;;;;16.55;9.68;;;;;;;-143.21;100.00;71294.94;5054535;28;20237;-79
2023/06/16 01:50:15;;;;;;;13.10;9.93;;;;;;;-143.21;100.00;71288.97;5055556;28;20275;-78
2023/06/16 01:52:42;;;;;;;14.50;10.93;;;;;;;-143.21;100.00;71296.91;5055869;28;20204;-78
2023/06/16 01:55:10;;;;;;;13.77;9.80;;;;;;;-143.21;100.00;71288.97;5055100;28;20217;-78
2023/06/16 01:57:37;;;;;;;14.95;10.35;;;;;;;-143.21;100.00;71281.06;5056993;28;20202;-78
2023/06/16 02:00:10;;;;;;;13.20;10.57;;;;;;;-143.21;100.00;71285.03;5048420;28;20221;-77
2023/06/16 02:02:41;;;;;;;11.98;9.52;;;;;;;-143.21;100.00;71292.94;5055718;28;20193;-78
2023/06/16 02:05:11;;;;;;;13.00;10.00;;;;;;;-143.21;100.00;71292.94;5048566;28;20285;-78
2023/06/16 02:07:43;;;;;;;12.27;10.32;;;;;;;-143.21;100.00;71288.97;5054760;28;20280;-77
2023/06/16 02:10:12;;;;;;;16.27;10.48;;;;;;;-143.21;100.00;71288.97;5052930;28;20194;-78
2023/06/16 02:12:39;;;;;;;12.70;10.25;;;;;;;-143.21;100.00;71306.81;5050898;28;20198;-81
2023/06/16 02:15:09;;;;;;;14.73;10.73;;;;;;;-143.21;100.00;71304.84;5051411;28;20673;-81
2023/06/16 02:17:36;;;;;;;11.85;10.48;;;;;;;-143.21;100.00;71298.91;5054558;28;20217;-81
2023/06/16 02:20:06;;;;;;;16.23;10.70;;;;;;;-143.21;100.00;71304.84;5051669;28;20711;-81
2023/06/16 02:22:33;;;;;;;12.55;9.95;;;;;;;-143.21;100.00;71308.81;5051518;28;20198;-81
2023/06/16 02:25:00;;;;;;;14.90;10.63;;;;;;;-143.21;100.00;71310.78;5051213;28;20210;-80
2023/06/16 02:27:27;;;;;;;12.38;10.20;;;;;;;-143.21;100.00;71306.81;5056551;28;20197;-80
2023/06/16 02:29:54;;;;;;;13.73;10.05;;;;;;;-143.21;100.00;71308.81;5057313;28;20205;-80
2023/06/16 02:32:22;;;;;;;13.30;10.55;;;;;;;-143.21;100.00;71302.84;5051696;28;20202;-80
2023/06/16 02:34:52;;;;;;;12.63;10.30;;;;;;;-143.21;100.00;71306.81;5050594;28;20242;-80
2023/06/16 02:37:19;;;;;;;13.38;10.45;;;;;;;-143.21;100.00;71314.75;5050944;28;20669;-81
2023/06/16 02:39:46;;;;;;;14.55;10.95;;;;;;;-143.21;100.00;71306.81;5049184;28;20285;-81
2023/06/16 02:42:13;;;;;;;14.48;9.95;;;;;;;-143.21;100.00;71310.78;5051656;28;20267;-80
2023/06/16 02:44:40;;;;;;;14.23;10.63;;;;;;;-143.21;100.00;71308.81;5053280;28;20579;-80
2023/06/16 02:47:07;;;;;;;13.25;10.63;;;;;;;-143.21;100.00;71312.78;5054289;28;20209;-80
2023/06/16 02:49:35;;;;;;;13.38;10.02;;;;;;;-143.21;100.00;71306.81;5054349;28;20210;-81
2023/06/16 02:52:02;;;;;;;13.43;10.90;;;;;;;-143.21;100.00;71306.81;5053915;28;20673;-80
2023/06/16 02:54:29;;;;;;;13.48;10.77;;;;;;;-143.21;100.00;71304.84;5050565;28;20198;-80
2023/06/16 02:56:56;;;;;;;12.88;9.77;;;;;;;-143.21;100.00;71302.84;5053476;28;20225;-80
2023/06/16 02:59:23;;;;;;;13.45;9.88;;;;;;;-143.21;100.00;71314.75;5056353;28;20206;-80
2023/06/16 03:01:49;;;;;;;15.70;10.60;;;;;;;-143.21;100.00;71302.84;5050820;28;20628;-81
2023/06/16 03:04:17;;;;;;;16.83;10.77;;;;;;;-143.21;100.00;71296.91;5054502;28;20289;-81
2023/06/16 03:06:46;;;;;;;16.77;11.13;;;;;;;-143.21;100.00;71304.84;5054396;28;20206;-80
2023/06/16 03:09:14;;;;;;;16.48;9.90;;;;;;;-143.21;100.00;71302.84;5053436;28;20209;-80
2023/06/16 03:11:41;;;;;;;13.25;9.43;;;;;;;-143.21;100.00;71308.81;5056345;28;20281;-80
2023/06/16 03:14:08;;;;;;;14.32;9.63;;;;;;;-143.21;100.00;71306.81;5053328;28;20202;-80
2023/06/16 03:16:35;;;;;;;12.30;9.68;;;;;;;-143.21;100.00;71310.78;5056898;28;20204;-80
2023/06/16 03:19:02;;;;;;;11.13;9.43;;;;;;;-143.21;100.00;71312.78;5053467;28;20209;-80
2023/06/16 03:21:29;;;;;;;15.02;9.45;;;;;;;-143.21;100.00;71308.81;5049641;28;20257;-80
2023/06/16 03:23:57;;;;;;;13.60;9.57;;;;;;;-143.21;100.00;71306.81;5053198;28;20202;-80
2023/06/16 03:26:24;;;;;;;13.10;9.40;;;;;;;-143.21;100.00;71296.91;5054986;28;20213;-80
2023/06/16 03:28:51;;;;;;;12.93;9.25;;;;;;;-143.21;100.00;71308.81;5052186;28;20292;-79
2023/06/16 03:31:19;;;;;;;14.88;10.00;;;;;;;-143.21;100.00;71300.88;5054193;28;20209;-79
2023/06/16 03:33:46;;;;;;;14.52;9.98;;;;;;;-143.21;100.00;71285.03;5052735;28;20316;-78
2023/06/16 03:36:13;;;;;;;11.93;8.90;;;;;;;-143.21;100.00;71285.03;5055646;28;20208;-79
2023/06/16 03:38:39;;;;;;;13.25;9.57;;;;;;;-143.21;100.00;71283.03;5053208;28;20201;-79
2023/06/16 03:41:08;;;;;;;15.60;9.93;;;;;;;-143.21;100.00;71281.06;5050209;28;20221;-79
2023/06/16 03:43:34;;;;;;;13.07;10.10;;;;;;;-143.21;100.00;71279.06;5053032;28;20252;-79
2023/06/16 03:46:02;;;;;;;15.18;11.00;;;;;;;-143.21;100.00;71285.03;5056044;28;20214;-79
2023/06/16 03:48:28;;;;;;;14.35;10.48;;;;;;;-143.21;100.00;71279.06;5049505;28;20205;-76
2023/06/16 03:50:55;;;;;;;17.98;11.73;;;;;;;-143.21;100.00;71279.06;5052343;28;20296;-76
2023/06/16 03:53:22;;;;;;;18.58;11.32;;;;;;;-143.21;100.00;71279.06;5049238;28;20213;-76
2023/06/16 03:55:49;;;;;;;14.70;11.50;;;;;;;-143.21;100.00;71279.06;5051720;28;20218;-76
2023/06/16 03:58:17;;;;;;;18.75;12.23;;;;;;;-143.21;100.00;71281.06;5058584;28;20610;-77
2023/06/16 04:00:44;;;;;;;16.48;12.73;;;;;;;-143.21;100.00;71267.19;5056109;28;20225;-76
2023/06/16 04:03:12;;;;;;;15.38;12.98;;;;;;;-143.21;100.00;71273.13;5052194;28;20193;-78
2023/06/16 04:05:38;;;;;;;19.35;13.40;;;;;;;-143.21;100.00;71267.19;5052333;28;20672;-76
2023/06/16 04:08:06;;;;;;;18.02;13.02;;;;;;;-143.21;100.00;71273.13;5055811;28;20210;-77
2023/06/16 04:10:33;;;;;;;18.88;13.40;;;;;;;-143.21;100.00;71271.13;5049256;28;20284;-77
2023/06/16 04:13:00;;;;;;;19.45;13.68;;;;;;;-143.21;100.00;71265.19;5052045;28;20205;-78
2023/06/16 04:15:29;;;;;;;19.08;13.85;;;;;;;-143.21;100.00;71267.19;5061861;28;20209;-76
2023/06/16 04:17:56;;;;;;;22.40;14.65;;;;;;;-143.21;100.00;71267.19;5054793;28;20572;-78
2023/06/16 04:20:23;;;;;;;18.33;14.07;;;;;;;-143.21;100.00;71265.19;5052323;28;20214;-77
2023/06/16 04:22:50;;;;;;;19.98;14.48;;;;;;;-143.21;100.00;71265.19;5054545;28;20665;-77
2023/06/16 04:25:17;;;;;;;21.80;14.98;;;;;;;-143.21;100.00;71271.13;5055761;28;20201;-78
2023/06/16 04:27:46;;;;;;;22.77;14.63;;;;;;;-143.21;100.00;71261.22;5063181;28;20205;-76
2023/06/16 04:30:13;;;;;;;19.75;15.82;;;;;;;-143.21;100.00;71259.25;5061983;28;20209;-77
2023/06/16 04:32:44;;;;;;;22.13;15.65;;;;;;;-143.21;100.00;71261.22;5058148;28;20209;-78
2023/06/16 04:35:11;;;;;;;19.92;15.80;;;;;;;-143.21;100.00;71261.22;5065084;28;20229;-76
2023/06/16 04:37:38;;;;;;;21.10;16.05;;;;;;;-143.21;100.00;71257.25;5059001;28;20204;-76
2023/06/16 04:40:08;;;;;;;19.85;14.57;;;;;;;-143.21;100.00;71255.28;5065574;28;20250;-77
2023/06/16 04:42:35;;;;;;;19.08;14.15;;;;;;;-143.21;100.00;71253.28;5052467;28;20253;-77
2023/06/16 04:45:01;;;;;;;22.27;14.13;;;;;;;-143.21;100.00;71255.28;5062933;28;20230;-76
2023/06/16 04:47:28;;;;;;;18.05;13.95;;;;;;;-143.21;100.00;71251.31;5058696;28;20215;-77
2023/06/16 04:49:57;;;;;;;20.58;13.90;;;;;;;-143.21;100.00;71241.41;5053371;28;20859;-76
2023/06/16 04:52:24;;;;;;;26.23;13.27;;;;;;;-143.21;100.00;71237.44;5062819;28;20682;-77
2023/06/16 04:54:51;;;;;;;20.77;13.13;;;;;;;-143.21;100.00;71241.41;5061052;28;20267;-77
2023/06/16 04:57:19;;;;;;;19.63;13.90;;;;;;;-143.21;100.00;71243.38;5061606;28;20284;-78
2023/06/16 04:59:46;;;;;;;19.25;12.77;;;;;;;-143.21;100.00;71249.34;5054741;28;20594;-76
2023/06/16 05:02:13;;;;;;;17.83;13.63;;;;;;;-143.21;100.00;71243.38;5056269;28;20221;-76
2023/06/16 05:04:43;;;;;;;18.83;13.80;;;;;;;-143.21;100.00;71245.38;5056021;28;20205;-76
2023/06/16 05:07:12;;;;;;;18.77;12.90;;;;;;;-143.21;100.00;71239.41;5061745;28;20209;-78
2023/06/16 05:09:42;;;;;;;20.50;13.75;;;;;;;-143.21;100.00;71241.41;5054956;28;20204;-76
2023/06/16 05:12:10;;;;;;;17.38;14.07;;;;;;;-143.21;100.00;71245.38;5060975;28;20318;-76
2023/06/16 05:17:26;;;;;;;18.33;13.32;;;;;;;-143.21;100.00;71243.38;5048869;28;20835;-78
2023/06/16 05:19:52;;;;;;;20.40;14.02;;;;;;;-143.21;100.00;71241.41;5062270;28;20214;-76
2023/06/16 05:22:23;;;;;;;23.05;14.45;;;;;;;-143.21;100.00;71251.31;5056405;28;20226;-77
2023/06/16 05:24:53;;;;;;;21.85;14.15;;;;;;;-143.21;100.00;71253.28;5059568;28;20232;-78
2023/06/16 05:27:22;;;;;;;21.73;14.05;;;;;;;-143.21;100.00;71263.22;5057298;28;20748;-76
2023/06/16 05:29:49;;;;;;;16.50;14.18;;;;;;;-143.21;100.00;71263.22;5062851;28;20281;-77
2023/06/16 05:32:16;;;;;;;21.10;14.48;;;;;;;-143.21;100.00;71255.28;5052506;28;20260;-77
2023/06/16 05:34:43;;;;;;;22.23;13.98;;;;;;;-143.21;100.00;71245.38;5057933;28;20227;-77
2023/06/16 05:37:15;;;;;;;19.02;14.25;;;;;;;-143.21;100.00;71239.41;5057263;28;20209;-77
2023/06/16 05:39:45;;;;;;;18.30;14.57;;;;;;;-143.21;100.00;71235.44;5054368;28;20194;-77
2023/06/16 05:42:13;;;;;;;17.27;14.57;;;;;;;-143.21;100.00;71235.44;5057455;28;20218;-77
2023/06/16 05:44:40;;;;;;;18.23;14.90;;;;;;;-143.21;100.00;71229.50;5057662;28;20641;-77
2023/06/16 05:47:08;;;;;;;22.23;14.95;;;;;;;-143.21;100.00;71229.50;5067424;28;20210;-77
2023/06/16 05:49:34;;;;;;;17.08;13.88;;;;;;;-143.21;100.00;71229.50;5057768;28;20311;-77
2023/06/16 05:52:04;;;;;;;17.75;13.93;;;;;;;-143.21;100.00;71221.56;5057769;28;20197;-77
2023/06/16 05:54:31;;;;;;;20.48;13.82;;;;;;;-143.21;100.00;71221.56;5068452;28;20209;-77
2023/06/16 05:56:59;;;;;;;19.27;13.65;;;;;;;-143.21;100.00;71219.59;5057005;28;20214;-78
2023/06/16 05:59:27;;;;;;;15.80;14.00;;;;;;;-143.21;100.00;71215.63;5054730;28;20206;-78
2023/06/16 06:01:54;;;;;;;16.20;13.45;;;;;;;-143.21;100.00;71207.69;5059818;28;20233;-78
2023/06/16 06:04:22;;;;;;;20.83;13.82;;;;;;;-143.21;100.00;71203.72;5060429;28;20198;-80
2023/06/16 06:06:49;;;;;;;14.95;13.07;;;;;;;-143.21;100.00;71195.81;5054487;28;20206;-81
2023/06/16 06:09:16;;;;;;;18.15;13.80;;;;;;;-143.21;100.00;71195.81;5057327;28;20283;-80
2023/06/16 06:11:43;;;;;;;16.60;13.52;;;;;;;-143.21;100.00;71183.91;5054798;28;20197;-80
2023/06/16 06:14:12;;;;;;;14.38;12.85;;;;;;;-143.21;100.00;71174.00;5051719;28;20206;-80
2023/06/16 06:16:39;;;;;;;16.55;12.68;;;;;;;-143.21;100.00;71166.06;5054680;28;20255;-80
2023/06/16 06:19:06;;;;;;;16.70;12.40;;;;;;;-143.21;100.00;71164.09;5059062;28;20190;-79
2023/06/16 06:21:34;;;;;;;16.27;12.25;;;;;;;-143.21;100.00;71150.22;5059818;28;20226;-79
2023/06/16 06:24:01;;;;;;;14.60;11.82;;;;;;;-143.21;100.00;71132.38;5058040;28;20194;-81
2023/06/16 06:26:28;;;;;;;21.52;12.45;;;;;;;-143.21;100.00;71114.53;5057489;28;20217;-80
2023/06/16 06:28:54;;;;;;;17.40;12.43;;;;;;;-143.21;100.00;71106.59;5052612;28;20214;-81
2023/06/16 06:31:23;;;;;;;13.32;11.38;;;;;;;-143.21;100.00;71104.59;5051325;28;20201;-79
2023/06/16 06:33:49;;;;;;;15.63;11.85;;;;;;;-143.21;100.00;71100.66;5058547;28;20285;-80
2023/06/16 06:36:22;;;;;;;14.82;11.45;;;;;;;-143.21;100.00;71088.75;5053249;28;20202;-79
2023/06/16 06:38:49;;;;;;;17.55;12.30;;;;;;;-143.21;100.00;71098.66;5057859;28;20684;-80
2023/06/16 06:41:16;;;;;;;14.45;11.65;;;;;;;-143.21;100.00;71098.66;5054747;28;20321;-79
2023/06/16 06:43:43;;;;;;;12.93;10.80;;;;;;;-143.21;100.00;71094.69;5056171;28;20244;-80
2023/06/16 06:46:10;;;;;;;11.80;10.43;;;;;;;-143.21;100.00;71084.78;5063394;28;20631;-80
2023/06/16 06:48:38;;;;;;;17.27;11.35;;;;;;;-143.21;100.00;71068.94;5050138;28;20205;-80
2023/06/16 06:51:05;;;;;;;13.70;11.63;;;;;;;-143.21;99.95;71066.94;5056266;28;20201;-80
2023/06/16 06:53:32;;;;;;;14.32;10.60;;;;;;;-143.21;100.00;71057.03;5045449;28;20259;-80
2023/06/16 06:55:59;;;;;;;12.63;10.63;;;;;;;-143.21;99.52;71047.13;5050109;28;20285;-80
2023/06/16 06:58:26;;;;;;;14.98;10.52;;;;;;;-143.21;99.23;71031.25;5053147;28;20283;-80
2023/06/16 07:00:53;;;;;;;11.52;9.95;;;;;;;-143.21;98.15;71015.41;5050302;28;20990;-80
2023/06/16 07:03:20;;;;;;;12.20;10.05;;;;;;;-143.21;97.48;70997.56;5053855;28;20707;-79
2023/06/16 07:05:48;;;;;;;12.48;9.27;;;;;;;-143.21;96.54;70973.78;5050508;28;20289;-79
2023/06/16 07:08:15;;;;;;;11.70;9.13;;;;;;;-143.21;95.75;70959.91;5054430;28;20197;-78
2023/06/16 07:10:42;;;;;;;12.68;10.27;;;;;;;-143.21;94.23;70951.97;5051114;28;20592;-79
2023/06/16 07:13:08;;;;;;;12.27;9.05;;;;;;;-143.21;93.95;70949.97;5050417;28;20206;-80
2023/06/16 07:15:35;;;;;;;12.55;9.75;;;;;;;-143.21;93.36;70948.00;5053334;28;20255;-80
2023/06/16 07:18:02;;;;;;;11.30;9.57;;;;;;;-143.21;93.30;70955.94;5050632;28;20212;-80
2023/06/16 07:20:29;;;;;;;11.27;9.65;;;;;;;-143.21;93.74;70969.81;5050465;28;20203;-80
2023/06/16 07:22:57;;;;;;;12.40;10.25;;;;;;;-143.21;93.43;70971.78;5049676;28;20279;-81
2023/06/16 07:25:24;;;;;;;12.73;10.07;;;;;;;-143.21;92.82;70979.72;5050490;28;20691;-79
2023/06/16 07:27:51;;;;;;;14.60;10.60;;;;;;;-143.21;93.26;70979.72;5051214;28;20209;-79
2023/06/16 07:30:18;;;;;;;15.13;10.43;;;;;;;-143.21;92.71;70997.56;5053014;28;20271;-79
2023/06/16 07:32:45;;;;;;;14.75;11.57;;;;;;;-143.21;93.15;70991.63;5052786;28;20213;-79
2023/06/16 07:35:12;;;;;;;19.88;12.13;;;;;;;-143.21;91.80;70999.53;5053705;28;20657;-80
2023/06/16 07:37:39;;;;;;;15.15;11.23;;;;;;;-143.21;90.77;71007.47;5049493;28;20201;-80
2023/06/16 07:40:13;;;;;;;18.27;11.40;;;;;;;-143.21;90.52;70997.56;5053725;28;20383;-80
2023/06/16 07:42:39;;;;;;;16.67;12.43;;;;;;;-143.21;90.68;70995.56;5049576;28;20263;-86
2023/06/16 07:45:07;;;;;;;16.67;12.63;;;;;;;-143.21;90.70;70989.63;5049491;28;20201;-86
2023/06/16 07:47:34;;;;;;;14.40;12.15;;;;;;;-143.21;90.57;70991.63;5049855;28;20205;-86
2023/06/16 07:50:01;;;;;;;16.80;12.63;;;;;;;-143.21;88.77;70991.63;5052734;28;20197;-85
2023/06/16 07:52:28;;;;;;;17.55;12.95;;;;;;;-143.21;89.62;70983.69;5049408;28;20562;-86
2023/06/16 07:54:55;;;;;;;16.25;12.73;;;;;;;-143.21;91.62;70967.81;5054134;28;20294;-85
2023/06/16 07:57:26;;;;;;;16.08;12.35;;;;;;;-143.21;89.32;70965.84;5051987;28;20205;-86
2023/06/16 07:59:52;;;;;;;17.23;12.70;;;;;;;-143.21;87.06;70953.94;5050686;28;20216;-86
2023/06/16 08:02:19;;;;;;;19.95;12.07;;;;;;;-143.21;87.71;70953.94;5054340;28;20294;-85
2023/06/16 08:04:46;;;;;;;16.30;11.80;;;;;;;-143.21;88.16;70949.97;5054373;28;20222;-85
2023/06/16 08:07:13;;;;;;;19.65;12.80;;;;;;;-143.21;87.75;70946.03;5056957;28;20194;-84
2023/06/16 08:09:40;;;;;;;15.60;12.35;;;;;;;-143.21;87.43;70938.09;5050268;28;20193;-84
2023/06/16 08:12:09;;;;;;;16.75;12.68;;;;;;;-143.21;85.72;70934.13;5050461;28;20213;-83
2023/06/16 08:14:38;;;;;;;22.75;13.18;;;;;;;-143.21;84.78;70936.09;5050861;28;20206;-84
2023/06/16 08:17:05;;;;;;;20.70;13.45;;;;;;;-143.21;84.49;70946.03;5047424;28;20571;-83
2023/06/16 08:19:32;;;;;;;18.75;14.30;;;;;;;-143.21;85.28;70949.97;5046931;28;20198;-83
2023/06/16 08:22:00;;;;;;;22.42;14.25;;;;;;;-143.21;84.28;70959.91;5050290;28;20261;-78
2023/06/16 08:24:27;;;;;;;20.85;14.55;;;;;;;-143.21;84.97;70973.78;5048291;28;20748;-77
2023/06/16 08:26:53;;;;;;;19.38;14.45;;;;;;;-143.21;85.74;70979.72;5056812;28;20214;-77
2023/06/16 08:29:21;;;;;;;19.13;14.27;;;;;;;-143.21;84.49;70977.72;5049953;28;20209;-79
2023/06/16 08:31:50;;;;;;;19.20;13.98;;;;;;;-143.21;84.86;70975.75;5051865;28;20820;-79
2023/06/16 08:34:19;;;;;;;21.45;15.00;;;;;;;-143.21;85.48;70985.66;5053992;28;20288;-78
2023/06/16 08:36:46;;;;;;;18.00;14.95;;;;;;;-143.21;84.77;70983.69;5058240;28;20209;-77
2023/06/16 08:39:14;;;;;;;19.17;15.05;;;;;;;-143.21;85.08;70979.72;5055678;28;20202;-77
2023/06/16 08:41:42;;;;;;;20.15;16.40;;;;;;;-143.21;85.41;70961.88;5054028;28;20275;-77
2023/06/16 08:44:11;;;;;;;21.75;15.90;;;;;;;-143.21;84.09;70969.81;5053413;28;20202;-77
2023/06/16 08:46:38;;;;;;;23.55;16.42;;;;;;;-143.21;83.69;70967.81;5048436;28;20209;-82
2023/06/16 08:49:07;;;;;;;26.02;15.82;;;;;;;-143.21;84.62;70959.91;5051445;28;20629;-83
2023/06/16 08:51:37;;;;;;;23.92;17.00;;;;;;;-143.21;85.08;70955.94;5045599;28;20206;-87
2023/06/16 08:54:10;;;;;;;19.75;16.33;;;;;;;-143.21;85.23;70942.06;5049234;28;20260;-82
2023/06/16 08:56:38;;;;;;;22.77;15.90;;;;;;;-143.21;83.71;70924.22;5045957;28;20202;-84
2023/06/16 08:59:07;;;;;;;18.85;14.82;;;;;;;-143.21;82.02;70900.41;5055533;28;20696;-85
2023/06/16 09:01:40;;;;;;;17.80;14.75;;;;;;;-143.21;81.47;70882.59;5045752;28;20199;-85
2023/06/16 09:04:09;;;;;;;20.50;14.70;;;;;;;-143.21;81.37;70868.72;5047300;28;20260;-85
2023/06/16 09:06:36;;;;;;;21.25;15.23;;;;;;;-143.21;81.12;70856.81;5048410;28;20202;-83
2023/06/16 09:09:04;;;;;;;23.63;15.23;;;;;;;-143.21;80.16;70852.84;5048703;28;20210;-84
2023/06/16 09:11:31;;;;;;;15.85;13.48;;;;;;;-143.21;80.09;70860.78;5043117;28;20210;-85
2023/06/16 09:13:58;;;;;;;16.40;13.45;;;;;;;-143.21;78.96;70844.91;5046879;28;20265;-84
2023/06/16 09:16:25;;;;;;;19.17;14.07;;;;;;;-143.21;77.79;70844.91;5055260;28;20210;-86
2023/06/16 09:18:52;;;;;;;19.75;13.82;;;;;;;-143.21;78.08;70840.97;5056780;28;20209;-85
2023/06/16 09:21:23;;;;;;;19.95;13.93;;;;;;;-143.21;79.33;70833.03;5051418;28;20202;-86
2023/06/16 09:23:57;;;;;;;18.02;14.43;;;;;;;-143.21;79.43;70835.00;5047828;28;20729;-84
2023/06/16 09:26:29;;;;;;;22.83;15.18;;;;;;;-143.21;79.13;70831.03;5049694;28;20224;-84
2023/06/16 09:28:56;;;;;;;21.63;15.18;;;;;;;-143.21;78.21;70827.06;5052138;28;20286;-84
2023/06/16 09:31:26;;;;;;;19.80;15.45;;;;;;;-143.21;78.63;70825.09;5052037;28;20210;-84
2023/06/16 09:33:53;;;;;;;21.17;15.27;;;;;;;-143.21;78.85;70823.13;5052811;28;20226;-84
2023/06/16 09:36:28;;;;;;;24.40;16.05;;;;;;;-143.21;79.41;70821.13;5052889;28;20210;-84
2023/06/16 09:38:55;;;;;;;18.83;15.25;;;;;;;-143.21;79.13;70831.03;5054213;28;20213;-86
2023/06/16 09:41:22;;;;;;;19.58;14.93;;;;;;;-143.21;78.76;70842.94;5056472;28;20218;-85
2023/06/16 09:43:49;;;;;;;21.70;15.05;;;;;;;-143.21;78.82;70837.00;5057832;28;20230;-84
2023/06/16 09:46:16;;;;;;;17.63;14.65;;;;;;;-143.21;79.19;70821.13;5060067;28;20293;-81
2023/06/16 09:48:47;;;;;;;18.40;14.65;;;;;;;-143.21;78.75;70813.19;5053899;28;20205;-82
2023/06/16 09:51:32;;;;;;;20.27;15.68;;;;;;;-143.21;78.71;70799.31;5052392;28;20198;-85
2023/06/16 09:54:41;;;;;;;18.40;14.38;;;;;;;-143.21;77.85;70783.47;5059199;28;20206;-83
2023/06/16 10:00:21;;;;;;;17.30;13.95;;;;;;;-143.21;76.69;70759.69;5055082;28;20237;-86
2023/06/16 10:02:50;;;;;;;20.98;14.70;;;;;;;-143.21;75.17;70753.72;5044023;28;20225;-78
2023/06/16 10:05:19;;;;;;;17.27;13.48;;;;;;;-143.21;75.06;70751.75;5053153;28;20209;-86
2023/06/16 10:07:48;;;;;;;16.98;13.18;;;;;;;-143.21;74.05;70747.78;5054356;28;20236;-86
2023/06/16 10:10:22;;;;;;;19.17;14.60;;;;;;;-143.21;74.74;70749.78;5054997;28;20202;-85
2023/06/16 10:12:51;;;;;;;17.48;13.85;;;;;;;-143.21;74.73;70731.94;5054344;28;20229;-82
2023/06/16 10:15:23;;;;;;;21.25;13.95;;;;;;;-143.21;74.91;70698.22;5053491;28;20597;-83
2023/06/16 10:17:51;;;;;;;17.27;13.60;;;;;;;-143.21;74.44;70670.47;5054409;28;20565;-83
2023/06/16 10:20:19;;;;;;;15.63;13.23;;;;;;;-143.21;72.61;70646.69;5050674;28;20202;-81
2023/06/16 10:22:47;;;;;;;18.92;13.20;;;;;;;-143.21;71.92;70628.84;5051087;28;20249;-83
2023/06/16 10:25:14;;;;;;;16.33;12.15;;;;;;;-143.21;71.08;70603.09;5050912;28;20585;-82
2023/06/16 10:27:43;;;;;;;16.55;12.63;;;;;;;-143.21;71.52;70573.34;5058916;28;20206;-82
2023/06/16 10:30:16;;;;;;;13.57;12.18;;;;;;;-143.21;69.75;70563.44;5054981;28;20259;-83
2023/06/16 10:32:46;;;;;;;13.88;12.02;;;;;;;-143.21;67.68;70581.28;5050324;28;20683;-81
2023/06/16 10:35:14;;;;;;;16.80;12.77;;;;;;;-143.21;69.34;70587.22;5050949;28;20205;-82
2023/06/16 10:37:41;;;;;;;15.05;12.32;;;;;;;-143.21;67.54;70581.28;5050547;28;20201;-81
2023/06/16 10:40:12;;;;;;;19.98;12.57;;;;;;;-143.21;67.04;70573.34;5050437;28;20194;-81
2023/06/16 10:42:41;;;;;;;16.13;13.80;;;;;;;-143.21;66.93;70565.44;5054859;28;20217;-83
2023/06/16 10:45:26;;;;;;;18.17;13.07;;;;;;;-143.21;67.16;70577.31;5050521;28;20684;-81
2023/06/16 10:47:56;;;;;;;13.82;12.30;;;;;;;-143.21;66.04;70591.19;5050097;28;20210;-81
2023/06/16 10:50:30;;;;;;;15.73;12.07;;;;;;;-143.21;66.57;70597.13;5050860;28;20297;-82
2023/06/16 10:53:08;;;;;;;14.02;11.63;;;;;;;-143.21;66.19;70609.03;5048247;28;20235;-78
2023/06/16 10:55:37;;;;;;;14.68;12.23;;;;;;;-143.21;67.61;70607.06;5054292;28;20558;-79
2023/06/16 10:58:26;;;;;;;13.85;12.15;;;;;;;-143.21;68.11;70595.16;5053636;28;20225;-78
2023/06/16 11:01:26;;;;;;;18.92;12.57;;;;;;;-143.21;68.03;70575.34;5057811;28;20234;-78
2023/06/16 11:04:01;;;;;;;13.43;11.57;;;;;;;-143.21;67.00;70561.47;5050461;28;20358;-83
2023/06/16 11:06:28;;;;;;;13.93;11.85;;;;;;;-143.21;67.33;70545.59;5050322;28;20231;-82
2023/06/16 11:08:57;;;;;;;12.63;11.32;;;;;;;-143.21;66.12;70515.88;5049978;28;20214;-82